LTAT/MLX METAR and TAF weather

Enter ICAO airport designator
Station Type Date Time Source
LTAT METAR 2020/08/07 12:20 UTC NOAA

LTAT 071220Z 11005KT CAVOK 36/00 Q1009 NOSIG


Station Type Date Time Source
LTAT Decoded METAR 2020/08/07 12:20 UTC NOAA

Malatya / Erhac, Turkey (LTAT) 38-26N 038-05E 849M
Aug 07, 2020 - 08:20 AM EDT / 2020.08.07 1220 UTC
Wind: from the ESE (110 degrees) at 6 MPH (5 KT):0
Visibility: greater than 7 mile(s):0
Temperature: 96 F (36 C)
Dew Point: 32 F (0 C)
Relative Humidity: 10%
Pressure (altimeter): 29.80 in. Hg (1009 hPa)
ob: LTAT 071220Z 11005KT CAVOK 36/00 Q1009 NOSIG
cycle: 12

Station Type Date Time Source
LTAT TAF 2020/08/07 12:03 UTC NOAA

TAF LTAT 071040Z 0712/0812 12009KT CAVOK
TEMPO 0717/0721 31015G25KT PROB30
TEMPO 0722/0802 29012G22KT

Example: see airport list